sensor_id;sensor_type;location;lat;lon;timestamp;pressure;altitude;pressure_sealevel;temperature;humidity
20987;BME280;10652;50.306;8.570;2023-06-26T00:02:47;97908.19;;;16.71;81.17
20987;BME280;10652;50.306;8.570;2023-06-26T00:06:50;97903.28;;;16.77;81.53
20987;BME280;10652;50.306;8.570;2023-06-26T00:10:52;97898.56;;;16.81;80.81
20987;BME280;10652;50.306;8.570;2023-06-26T00:14:55;97904.81;;;16.69;81.45
20987;BME280;10652;50.306;8.570;2023-06-26T00:18:57;97908.72;;;16.76;82.53
20987;BME280;10652;50.306;8.570;2023-06-26T00:23:03;97907.28;;;16.83;82.85
20987;BME280;10652;50.306;8.570;2023-06-26T00:27:09;97899.56;;;16.80;82.01
20987;BME280;10652;50.306;8.570;2023-06-26T00:31:11;97900.00;;;16.74;81.78
20987;BME280;10652;50.306;8.570;2023-06-26T00:35:13;97904.44;;;16.62;82.91
20987;BME280;10652;50.306;8.570;2023-06-26T00:39:19;97904.53;;;16.60;83.32
20987;BME280;10652;50.306;8.570;2023-06-26T00:43:21;97893.91;;;16.60;83.93
20987;BME280;10652;50.306;8.570;2023-06-26T00:47:23;97892.22;;;16.59;83.20
20987;BME280;10652;50.306;8.570;2023-06-26T00:51:28;97891.38;;;16.59;82.92
20987;BME280;10652;50.306;8.570;2023-06-26T00:55:31;97889.81;;;16.56;82.83
20987;BME280;10652;50.306;8.570;2023-06-26T00:59:34;97881.09;;;16.54;83.30
20987;BME280;10652;50.306;8.570;2023-06-26T01:03:36;97882.56;;;16.58;83.14
20987;BME280;10652;50.306;8.570;2023-06-26T01:07:41;97875.97;;;16.64;84.15
20987;BME280;10652;50.306;8.570;2023-06-26T01:11:44;97873.22;;;16.65;83.87
20987;BME280;10652;50.306;8.570;2023-06-26T01:15:46;97869.94;;;16.62;83.45
20987;BME280;10652;50.306;8.570;2023-06-26T01:19:49;97877.50;;;16.55;83.90
20987;BME280;10652;50.306;8.570;2023-06-26T01:24:06;97859.16;;;16.40;83.45
20987;BME280;10652;50.306;8.570;2023-06-26T01:28:12;97867.66;;;16.21;84.41
20987;BME280;10652;50.306;8.570;2023-06-26T01:32:15;97869.97;;;16.13;85.26
20987;BME280;10652;50.306;8.570;2023-06-26T01:36:17;97860.47;;;16.10;85.24
20987;BME280;10652;50.306;8.570;2023-06-26T01:40:20;97857.06;;;16.08;85.25
20987;BME280;10652;50.306;8.570;2023-06-26T01:44:29;97852.41;;;16.12;86.38
20987;BME280;10652;50.306;8.570;2023-06-26T01:48:45;97843.16;;;16.17;86.03
20987;BME280;10652;50.306;8.570;2023-06-26T01:53:00;97844.75;;;16.20;86.21
20987;BME280;10652;50.306;8.570;2023-06-26T01:57:05;97844.00;;;16.18;86.13
20987;BME280;10652;50.306;8.570;2023-06-26T02:01:10;97842.28;;;16.17;85.11
20987;BME280;10652;50.306;8.570;2023-06-26T02:05:13;97843.72;;;16.10;85.37
20987;BME280;10652;50.306;8.570;2023-06-26T02:09:15;97842.88;;;16.09;86.94
20987;BME280;10652;50.306;8.570;2023-06-26T02:13:18;97842.34;;;16.04;86.59
20987;BME280;10652;50.306;8.570;2023-06-26T02:17:20;97844.81;;;15.95;86.54
20987;BME280;10652;50.306;8.570;2023-06-26T02:21:23;97838.50;;;15.85;86.79
20987;BME280;10652;50.306;8.570;2023-06-26T02:25:25;97842.34;;;15.81;87.24
20987;BME280;10652;50.306;8.570;2023-06-26T02:29:27;97837.03;;;15.81;87.25
20987;BME280;10652;50.306;8.570;2023-06-26T02:38:58;97841.03;;;15.86;86.86
20987;BME280;10652;50.306;8.570;2023-06-26T02:43:01;97837.13;;;15.79;86.42
20987;BME280;10652;50.306;8.570;2023-06-26T02:47:03;97833.09;;;15.73;86.26
20987;BME280;10652;50.306;8.570;2023-06-26T02:51:07;97840.44;;;15.70;87.23
20987;BME280;10652;50.306;8.570;2023-06-26T02:55:10;97836.19;;;15.67;87.04
20987;BME280;10652;50.306;8.570;2023-06-26T02:59:12;97837.03;;;15.55;86.21
20987;BME280;10652;50.306;8.570;2023-06-26T03:03:14;97835.25;;;15.43;86.78
20987;BME280;10652;50.306;8.570;2023-06-26T03:07:16;97832.94;;;15.26;86.89
20987;BME280;10652;50.306;8.570;2023-06-26T03:11:18;97827.75;;;15.12;87.80
20987;BME280;10652;50.306;8.570;2023-06-26T03:15:20;97826.47;;;15.05;88.73
20987;BME280;10652;50.306;8.570;2023-06-26T03:19:23;97811.53;;;15.04;89.89
20987;BME280;10652;50.306;8.570;2023-06-26T03:23:43;97817.78;;;15.15;89.72
20987;BME280;10652;50.306;8.570;2023-06-26T03:27:46;97810.06;;;15.25;89.44
20987;BME280;10652;50.306;8.570;2023-06-26T03:31:49;97809.28;;;15.35;89.05
20987;BME280;10652;50.306;8.570;2023-06-26T03:35:51;97809.19;;;15.37;88.50
20987;BME280;10652;50.306;8.570;2023-06-26T03:39:54;97807.41;;;15.38;87.61
20987;BME280;10652;50.306;8.570;2023-06-26T03:43:57;97810.56;;;15.43;87.30
20987;BME280;10652;50.306;8.570;2023-06-26T03:48:04;97801.22;;;15.50;87.11
20987;BME280;10652;50.306;8.570;2023-06-26T03:52:07;97807.72;;;15.58;86.46
20987;BME280;10652;50.306;8.570;2023-06-26T03:56:09;97807.69;;;16.31;86.21
20987;BME280;10652;50.306;8.570;2023-06-26T04:00:11;97804.09;;;18.02;77.77
20987;BME280;10652;50.306;8.570;2023-06-26T04:04:17;97791.69;;;19.28;71.54
20987;BME280;10652;50.306;8.570;2023-06-26T04:08:19;97796.28;;;20.66;65.32
20987;BME280;10652;50.306;8.570;2023-06-26T04:12:22;97796.66;;;21.92;59.94
20987;BME280;10652;50.306;8.570;2023-06-26T04:16:25;97795.66;;;23.09;54.95
20987;BME280;10652;50.306;8.570;2023-06-26T04:20:27;97798.03;;;23.98;51.31
20987;BME280;10652;50.306;8.570;2023-06-26T04:24:29;97802.91;;;24.85;49.85
20987;BME280;10652;50.306;8.570;2023-06-26T04:28:32;97801.97;;;25.81;47.28
20987;BME280;10652;50.306;8.570;2023-06-26T04:32:34;97799.34;;;26.74;45.02
20987;BME280;10652;50.306;8.570;2023-06-26T04:36:37;97789.59;;;27.63;43.45
20987;BME280;10652;50.306;8.570;2023-06-26T04:40:41;97794.06;;;28.65;41.70
20987;BME280;10652;50.306;8.570;2023-06-26T04:44:44;97793.25;;;29.62;40.06
20987;BME280;10652;50.306;8.570;2023-06-26T04:48:46;97791.41;;;30.51;38.01
20987;BME280;10652;50.306;8.570;2023-06-26T04:52:48;97794.69;;;31.34;36.75
20987;BME280;10652;50.306;8.570;2023-06-26T04:56:51;97794.75;;;32.18;35.21
20987;BME280;10652;50.306;8.570;2023-06-26T05:00:53;97797.72;;;32.92;33.84
20987;BME280;10652;50.306;8.570;2023-06-26T05:04:55;97790.97;;;33.51;33.74
20987;BME280;10652;50.306;8.570;2023-06-26T05:08:57;97786.06;;;34.21;32.97
20987;BME280;10652;50.306;8.570;2023-06-26T05:12:59;97786.16;;;35.04;32.12
20987;BME280;10652;50.306;8.570;2023-06-26T05:17:01;97785.44;;;35.73;31.74
20987;BME280;10652;50.306;8.570;2023-06-26T05:21:04;97788.56;;;36.28;31.46
20987;BME280;10652;50.306;8.570;2023-06-26T05:25:08;97779.84;;;36.99;31.11
20987;BME280;10652;50.306;8.570;2023-06-26T05:29:11;97792.00;;;37.53;30.94
20987;BME280;10652;50.306;8.570;2023-06-26T05:33:14;97784.44;;;37.99;29.94
20987;BME280;10652;50.306;8.570;2023-06-26T05:37:20;97782.84;;;38.03;29.12
20987;BME280;10652;50.306;8.570;2023-06-26T05:41:23;97779.69;;;38.33;28.52
20987;BME280;10652;50.306;8.570;2023-06-26T05:45:25;97773.66;;;39.06;27.70
20987;BME280;10652;50.306;8.570;2023-06-26T05:49:27;97775.41;;;39.91;26.59
20987;BME280;10652;50.306;8.570;2023-06-26T05:53:30;97766.59;;;40.51;25.46
20987;BME280;10652;50.306;8.570;2023-06-26T05:57:33;97775.56;;;41.50;24.98
20987;BME280;10652;50.306;8.570;2023-06-26T06:01:36;97767.50;;;41.94;24.17
20987;BME280;10652;50.306;8.570;2023-06-26T06:05:38;97763.50;;;42.30;23.28
20987;BME280;10652;50.306;8.570;2023-06-26T06:09:40;97766.84;;;42.81;22.59
20987;BME280;10652;50.306;8.570;2023-06-26T06:13:43;97763.88;;;43.45;22.45
20987;BME280;10652;50.306;8.570;2023-06-26T06:17:45;97759.94;;;44.04;21.75
20987;BME280;10652;50.306;8.570;2023-06-26T06:21:47;97757.47;;;44.26;21.57
20987;BME280;10652;50.306;8.570;2023-06-26T06:25:49;97754.72;;;44.45;21.43
20987;BME280;10652;50.306;8.570;2023-06-26T06:29:51;97760.09;;;44.79;21.14
20987;BME280;10652;50.306;8.570;2023-06-26T06:33:56;97757.81;;;45.18;20.58
20987;BME280;10652;50.306;8.570;2023-06-26T06:37:58;97761.03;;;45.25;20.42
20987;BME280;10652;50.306;8.570;2023-06-26T06:42:00;97758.19;;;45.30;20.45
20987;BME280;10652;50.306;8.570;2023-06-26T06:46:02;97768.03;;;45.04;20.53
20987;BME280;10652;50.306;8.570;2023-06-26T06:50:05;97768.19;;;44.57;20.84
20987;BME280;10652;50.306;8.570;2023-06-26T06:54:10;97774.78;;;44.61;20.63
20987;BME280;10652;50.306;8.570;2023-06-26T06:58:12;97766.47;;;44.61;21.37
20987;BME280;10652;50.306;8.570;2023-06-26T07:02:17;97769.13;;;44.47;21.32
20987;BME280;10652;50.306;8.570;2023-06-26T07:06:19;97784.00;;;44.32;20.79
20987;BME280;10652;50.306;8.570;2023-06-26T07:10:21;97784.81;;;43.56;19.63
20987;BME280;10652;50.306;8.570;2023-06-26T07:14:23;97784.28;;;43.54;19.18
20987;BME280;10652;50.306;8.570;2023-06-26T07:18:25;97778.53;;;43.75;19.25
20987;BME280;10652;50.306;8.570;2023-06-26T07:22:27;97785.19;;;41.57;20.54
20987;BME280;10652;50.306;8.570;2023-06-26T07:26:29;97787.16;;;37.77;23.14
20987;BME280;10652;50.306;8.570;2023-06-26T07:30:45;97778.44;;;35.01;26.04
20987;BME280;10652;50.306;8.570;2023-06-26T07:34:47;97778.31;;;33.81;27.57
20987;BME280;10652;50.306;8.570;2023-06-26T07:38:49;97785.50;;;33.01;28.10
20987;BME280;10652;50.306;8.570;2023-06-26T07:42:52;97786.97;;;32.21;28.83
20987;BME280;10652;50.306;8.570;2023-06-26T07:46:55;97776.91;;;31.31;29.70
20987;BME280;10652;50.306;8.570;2023-06-26T07:50:58;97781.06;;;30.88;30.63
20987;BME280;10652;50.306;8.570;2023-06-26T07:55:00;97780.63;;;30.78;31.62
20987;BME280;10652;50.306;8.570;2023-06-26T07:59:02;97795.25;;;30.90;31.41
20987;BME280;10652;50.306;8.570;2023-06-26T08:03:06;97792.31;;;30.65;31.06
20987;BME280;10652;50.306;8.570;2023-06-26T08:07:13;97809.19;;;30.13;32.10
20987;BME280;10652;50.306;8.570;2023-06-26T08:11:16;97821.69;;;29.52;32.88
20987;BME280;10652;50.306;8.570;2023-06-26T08:15:18;97815.38;;;29.45;33.60
20987;BME280;10652;50.306;8.570;2023-06-26T08:19:20;97827.72;;;29.26;33.99
20987;BME280;10652;50.306;8.570;2023-06-26T08:23:22;97822.16;;;28.49;34.80
20987;BME280;10652;50.306;8.570;2023-06-26T08:27:27;97823.22;;;28.04;35.75
20987;BME280;10652;50.306;8.570;2023-06-26T08:31:29;97823.44;;;28.02;36.52
20987;BME280;10652;50.306;8.570;2023-06-26T08:35:36;97834.88;;;28.04;37.18
20987;BME280;10652;50.306;8.570;2023-06-26T08:39:38;97830.66;;;27.58;38.61
20987;BME280;10652;50.306;8.570;2023-06-26T08:43:40;97833.69;;;27.40;39.26
20987;BME280;10652;50.306;8.570;2023-06-26T08:47:43;97836.84;;;27.44;39.89
20987;BME280;10652;50.306;8.570;2023-06-26T08:51:52;97826.38;;;27.64;40.24
20987;BME280;10652;50.306;8.570;2023-06-26T08:55:58;97830.50;;;28.03;39.68
20987;BME280;10652;50.306;8.570;2023-06-26T09:00:01;97826.81;;;28.40;39.28
20987;BME280;10652;50.306;8.570;2023-06-26T09:04:04;97831.22;;;28.27;39.78
20987;BME280;10652;50.306;8.570;2023-06-26T09:08:07;97837.78;;;27.88;40.44
20987;BME280;10652;50.306;8.570;2023-06-26T09:12:09;97840.72;;;27.64;41.31
20987;BME280;10652;50.306;8.570;2023-06-26T09:16:12;97840.53;;;27.80;41.81
20987;BME280;10652;50.306;8.570;2023-06-26T09:20:14;97839.75;;;27.42;41.33
20987;BME280;10652;50.306;8.570;2023-06-26T09:24:17;97838.50;;;27.07;42.16
20987;BME280;10652;50.306;8.570;2023-06-26T09:28:19;97833.06;;;27.15;41.85
20987;BME280;10652;50.306;8.570;2023-06-26T09:32:24;97837.38;;;27.25;42.11
20987;BME280;10652;50.306;8.570;2023-06-26T09:36:28;97847.00;;;27.42;42.47
20987;BME280;10652;50.306;8.570;2023-06-26T09:40:38;97837.44;;;27.54;41.70
20987;BME280;10652;50.306;8.570;2023-06-26T09:44:44;97856.84;;;27.35;41.95
20987;BME280;10652;50.306;8.570;2023-06-26T09:48:47;97855.59;;;27.60;41.87
20987;BME280;10652;50.306;8.570;2023-06-26T09:52:51;97863.06;;;27.87;41.65
20987;BME280;10652;50.306;8.570;2023-06-26T09:56:55;97870.31;;;27.72;42.02
20987;BME280;10652;50.306;8.570;2023-06-26T10:00:58;97864.66;;;27.30;42.45
20987;BME280;10652;50.306;8.570;2023-06-26T10:05:00;97853.25;;;27.20;41.81
20987;BME280;10652;50.306;8.570;2023-06-26T10:09:03;97863.56;;;27.39;41.61
20987;BME280;10652;50.306;8.570;2023-06-26T10:13:11;97853.91;;;27.59;39.82
20987;BME280;10652;50.306;8.570;2023-06-26T10:17:19;97856.16;;;27.55;40.28
20987;BME280;10652;50.306;8.570;2023-06-26T10:21:25;97851.31;;;27.51;39.92
20987;BME280;10652;50.306;8.570;2023-06-26T10:25:29;97861.03;;;27.14;41.22
20987;BME280;10652;50.306;8.570;2023-06-26T10:29:33;97865.59;;;26.91;42.08
20987;BME280;10652;50.306;8.570;2023-06-26T10:33:37;97857.91;;;26.80;42.57
20987;BME280;10652;50.306;8.570;2023-06-26T10:41:45;97867.38;;;26.76;42.81
20987;BME280;10652;50.306;8.570;2023-06-26T10:46:07;97862.84;;;26.99;42.85
20987;BME280;10652;50.306;8.570;2023-06-26T10:50:23;97867.38;;;27.22;42.24
20987;BME280;10652;50.306;8.570;2023-06-26T10:54:29;97876.16;;;27.24;42.18
20987;BME280;10652;50.306;8.570;2023-06-26T11:02:48;97869.53;;;27.03;42.59
20987;BME280;10652;50.306;8.570;2023-06-26T11:07:29;97881.09;;;26.89;42.86
20987;BME280;10652;50.306;8.570;2023-06-26T11:15:57;97898.44;;;26.95;42.07
20987;BME280;10652;50.306;8.570;2023-06-26T11:19:59;97895.72;;;26.64;42.53
20987;BME280;10652;50.306;8.570;2023-06-26T11:24:06;97890.00;;;26.75;42.93
20987;BME280;10652;50.306;8.570;2023-06-26T11:28:09;97888.31;;;26.97;43.08
20987;BME280;10652;50.306;8.570;2023-06-26T11:32:12;97908.03;;;26.97;42.54
20987;BME280;10652;50.306;8.570;2023-06-26T11:36:14;97901.78;;;26.74;43.26
20987;BME280;10652;50.306;8.570;2023-06-26T11:40:18;97900.28;;;26.94;43.22
20987;BME280;10652;50.306;8.570;2023-06-26T11:44:21;97916.06;;;27.05;42.88
20987;BME280;10652;50.306;8.570;2023-06-26T11:48:25;97913.13;;;26.92;42.64
20987;BME280;10652;50.306;8.570;2023-06-26T11:52:27;97916.31;;;27.18;42.29
20987;BME280;10652;50.306;8.570;2023-06-26T11:56:29;97926.16;;;27.11;41.96
20987;BME280;10652;50.306;8.570;2023-06-26T12:00:32;97928.75;;;26.97;42.64
20987;BME280;10652;50.306;8.570;2023-06-26T12:04:36;97932.66;;;27.17;42.82
20987;BME280;10652;50.306;8.570;2023-06-26T12:08:39;97938.72;;;27.19;42.59
20987;BME280;10652;50.306;8.570;2023-06-26T12:12:42;97936.50;;;27.23;42.85
20987;BME280;10652;50.306;8.570;2023-06-26T12:16:44;97932.66;;;27.17;42.29
20987;BME280;10652;50.306;8.570;2023-06-26T12:20:47;97939.06;;;26.93;42.02
20987;BME280;10652;50.306;8.570;2023-06-26T12:24:49;97936.72;;;26.90;43.12
20987;BME280;10652;50.306;8.570;2023-06-26T12:28:51;97939.19;;;27.00;42.41
20987;BME280;10652;50.306;8.570;2023-06-26T12:32:54;97933.47;;;26.95;42.55
20987;BME280;10652;50.306;8.570;2023-06-26T12:37:02;97942.78;;;26.92;43.19
20987;BME280;10652;50.306;8.570;2023-06-26T12:41:05;97944.47;;;26.93;42.23
20987;BME280;10652;50.306;8.570;2023-06-26T12:45:11;97932.97;;;26.60;42.64
20987;BME280;10652;50.306;8.570;2023-06-26T12:49:33;97938.38;;;26.60;43.29
20987;BME280;10652;50.306;8.570;2023-06-26T12:53:35;97940.97;;;26.46;42.60
20987;BME280;10652;50.306;8.570;2023-06-26T12:57:38;97950.44;;;26.34;43.07
20987;BME280;10652;50.306;8.570;2023-06-26T13:01:40;97934.59;;;26.39;42.96
20987;BME280;10652;50.306;8.570;2023-06-26T13:05:42;97952.50;;;26.23;43.36
20987;BME280;10652;50.306;8.570;2023-06-26T13:09:44;97955.34;;;26.30;43.40
20987;BME280;10652;50.306;8.570;2023-06-26T13:13:48;97947.78;;;26.17;43.23
20987;BME280;10652;50.306;8.570;2023-06-26T13:18:10;97942.25;;;26.03;43.25
20987;BME280;10652;50.306;8.570;2023-06-26T13:22:12;97949.13;;;26.21;42.89
20987;BME280;10652;50.306;8.570;2023-06-26T13:26:14;97961.09;;;26.19;43.08
20987;BME280;10652;50.306;8.570;2023-06-26T13:30:36;97954.38;;;26.15;42.73
20987;BME280;10652;50.306;8.570;2023-06-26T13:34:39;97957.22;;;26.13;42.10
20987;BME280;10652;50.306;8.570;2023-06-26T13:38:41;97956.16;;;26.39;42.04
20987;BME280;10652;50.306;8.570;2023-06-26T13:42:43;97963.19;;;26.40;40.85
20987;BME280;10652;50.306;8.570;2023-06-26T13:46:46;97972.53;;;26.13;40.33
20987;BME280;10652;50.306;8.570;2023-06-26T13:50:48;97962.78;;;25.96;40.70
20987;BME280;10652;50.306;8.570;2023-06-26T13:54:55;97971.69;;;26.04;40.75
20987;BME280;10652;50.306;8.570;2023-06-26T13:58:57;97976.25;;;26.20;41.23
20987;BME280;10652;50.306;8.570;2023-06-26T14:03:02;97969.59;;;26.47;38.98
20987;BME280;10652;50.306;8.570;2023-06-26T14:07:05;97981.13;;;26.16;38.62
20987;BME280;10652;50.306;8.570;2023-06-26T14:11:09;97987.84;;;26.20;39.02
20987;BME280;10652;50.306;8.570;2023-06-26T14:15:11;97983.75;;;26.41;37.40
20987;BME280;10652;50.306;8.570;2023-06-26T14:19:13;97969.72;;;26.53;37.85
20987;BME280;10652;50.306;8.570;2023-06-26T14:23:17;97973.78;;;26.49;37.46
20987;BME280;10652;50.306;8.570;2023-06-26T14:27:19;97970.22;;;26.49;36.97
20987;BME280;10652;50.306;8.570;2023-06-26T14:31:21;97963.91;;;26.34;36.37
20987;BME280;10652;50.306;8.570;2023-06-26T14:35:23;97978.13;;;26.11;37.48
20987;BME280;10652;50.306;8.570;2023-06-26T14:39:25;97985.84;;;26.14;36.69
20987;BME280;10652;50.306;8.570;2023-06-26T14:43:28;97992.94;;;25.83;36.40
20987;BME280;10652;50.306;8.570;2023-06-26T14:47:30;97989.22;;;25.52;36.11
20987;BME280;10652;50.306;8.570;2023-06-26T14:51:32;97988.53;;;25.50;35.73
20987;BME280;10652;50.306;8.570;2023-06-26T14:55:35;97987.66;;;25.41;35.94
20987;BME280;10652;50.306;8.570;2023-06-26T14:59:37;97998.50;;;24.99;35.95
20987;BME280;10652;50.306;8.570;2023-06-26T15:03:39;97985.81;;;24.75;35.78
20987;BME280;10652;50.306;8.570;2023-06-26T15:07:41;97988.59;;;24.58;36.43
20987;BME280;10652;50.306;8.570;2023-06-26T15:11:43;97978.38;;;24.61;36.38
20987;BME280;10652;50.306;8.570;2023-06-26T15:15:45;97994.28;;;24.54;36.34
20987;BME280;10652;50.306;8.570;2023-06-26T15:19:47;97997.28;;;24.43;36.19
20987;BME280;10652;50.306;8.570;2023-06-26T15:23:50;97992.09;;;24.50;37.27
20987;BME280;10652;50.306;8.570;2023-06-26T15:27:52;97999.31;;;24.58;36.74
20987;BME280;10652;50.306;8.570;2023-06-26T15:31:54;97993.63;;;24.52;36.42
20987;BME280;10652;50.306;8.570;2023-06-26T15:35:57;97996.16;;;24.62;37.21
20987;BME280;10652;50.306;8.570;2023-06-26T15:39:59;97992.72;;;24.78;36.56
20987;BME280;10652;50.306;8.570;2023-06-26T15:44:01;97998.41;;;24.75;35.89
20987;BME280;10652;50.306;8.570;2023-06-26T15:48:03;98005.75;;;24.65;35.81
20987;BME280;10652;50.306;8.570;2023-06-26T15:52:05;97995.97;;;24.55;37.70
20987;BME280;10652;50.306;8.570;2023-06-26T15:56:10;97994.38;;;24.71;37.49
20987;BME280;10652;50.306;8.570;2023-06-26T16:00:13;97994.28;;;24.54;36.30
20987;BME280;10652;50.306;8.570;2023-06-26T16:04:17;98002.69;;;24.51;37.45
20987;BME280;10652;50.306;8.570;2023-06-26T16:08:19;97993.41;;;24.46;37.35
20987;BME280;10652;50.306;8.570;2023-06-26T16:12:21;97992.22;;;24.48;36.90
20987;BME280;10652;50.306;8.570;2023-06-26T16:16:24;98000.59;;;24.37;35.95
20987;BME280;10652;50.306;8.570;2023-06-26T16:20:26;97989.44;;;24.24;36.81
20987;BME280;10652;50.306;8.570;2023-06-26T16:24:28;98004.16;;;24.20;36.82
20987;BME280;10652;50.306;8.570;2023-06-26T16:28:30;98000.13;;;24.16;37.93
20987;BME280;10652;50.306;8.570;2023-06-26T16:32:32;98020.50;;;24.09;36.90
20987;BME280;10652;50.306;8.570;2023-06-26T16:36:34;98017.91;;;23.74;37.60
20987;BME280;10652;50.306;8.570;2023-06-26T16:40:37;98015.69;;;23.51;38.11
20987;BME280;10652;50.306;8.570;2023-06-26T16:44:39;98007.78;;;23.50;38.60
20987;BME280;10652;50.306;8.570;2023-06-26T16:48:41;98013.66;;;23.53;38.57
20987;BME280;10652;50.306;8.570;2023-06-26T16:52:43;98016.97;;;23.47;38.85
20987;BME280;10652;50.306;8.570;2023-06-26T16:56:46;98023.47;;;23.27;39.56
20987;BME280;10652;50.306;8.570;2023-06-26T17:00:48;98028.22;;;23.15;39.32
20987;BME280;10652;50.306;8.570;2023-06-26T17:04:50;98022.16;;;23.13;38.83
20987;BME280;10652;50.306;8.570;2023-06-26T17:08:52;98040.91;;;22.96;37.77
20987;BME280;10652;50.306;8.570;2023-06-26T17:12:55;98043.50;;;22.78;38.45
20987;BME280;10652;50.306;8.570;2023-06-26T17:16:57;98049.16;;;22.75;38.27
20987;BME280;10652;50.306;8.570;2023-06-26T17:20:59;98051.94;;;22.46;38.77
20987;BME280;10652;50.306;8.570;2023-06-26T17:25:02;98059.97;;;22.46;39.61
20987;BME280;10652;50.306;8.570;2023-06-26T17:29:06;98065.34;;;22.46;39.81
20987;BME280;10652;50.306;8.570;2023-06-26T17:33:08;98075.69;;;22.22;40.29
20987;BME280;10652;50.306;8.570;2023-06-26T17:37:10;98070.59;;;22.09;39.91
20987;BME280;10652;50.306;8.570;2023-06-26T17:41:12;98074.16;;;22.00;39.78
20987;BME280;10652;50.306;8.570;2023-06-26T17:45:16;98085.56;;;21.92;41.02
20987;BME280;10652;50.306;8.570;2023-06-26T17:49:19;98081.75;;;21.85;40.61
20987;BME280;10652;50.306;8.570;2023-06-26T17:53:21;98085.16;;;21.78;40.85
20987;BME280;10652;50.306;8.570;2023-06-26T17:57:23;98077.53;;;21.54;40.50
20987;BME280;10652;50.306;8.570;2023-06-26T18:01:26;98085.09;;;21.39;41.08
20987;BME280;10652;50.306;8.570;2023-06-26T18:05:28;98090.69;;;21.27;41.08
20987;BME280;10652;50.306;8.570;2023-06-26T18:09:30;98097.59;;;21.29;41.00
20987;BME280;10652;50.306;8.570;2023-06-26T18:13:33;98098.03;;;21.25;40.77
20987;BME280;10652;50.306;8.570;2023-06-26T18:17:35;98112.03;;;21.17;41.01
20987;BME280;10652;50.306;8.570;2023-06-26T18:21:38;98112.47;;;21.13;41.24
20987;BME280;10652;50.306;8.570;2023-06-26T18:25:40;98122.69;;;20.98;41.48
20987;BME280;10652;50.306;8.570;2023-06-26T18:29:42;98124.66;;;20.96;43.16
20987;BME280;10652;50.306;8.570;2023-06-26T18:33:46;98136.97;;;20.87;43.21
20987;BME280;10652;50.306;8.570;2023-06-26T18:37:48;98134.44;;;20.86;43.32
20987;BME280;10652;50.306;8.570;2023-06-26T18:41:54;98124.31;;;20.80;42.55
20987;BME280;10652;50.306;8.570;2023-06-26T18:45:56;98132.13;;;20.72;42.45
20987;BME280;10652;50.306;8.570;2023-06-26T18:49:58;98120.78;;;20.58;43.12
20987;BME280;10652;50.306;8.570;2023-06-26T18:54:01;98132.59;;;20.56;43.09
20987;BME280;10652;50.306;8.570;2023-06-26T18:58:03;98144.31;;;20.44;42.69
20987;BME280;10652;50.306;8.570;2023-06-26T19:02:05;98149.44;;;20.36;42.59
20987;BME280;10652;50.306;8.570;2023-06-26T19:06:07;98147.84;;;20.24;42.24
20987;BME280;10652;50.306;8.570;2023-06-26T19:10:10;98151.66;;;20.10;42.69
20987;BME280;10652;50.306;8.570;2023-06-26T19:14:17;98156.34;;;19.97;42.17
20987;BME280;10652;50.306;8.570;2023-06-26T19:18:19;98156.72;;;19.81;42.64
20987;BME280;10652;50.306;8.570;2023-06-26T19:22:21;98164.50;;;19.73;43.09
20987;BME280;10652;50.306;8.570;2023-06-26T19:26:23;98167.22;;;19.62;42.68
20987;BME280;10652;50.306;8.570;2023-06-26T19:30:25;98178.63;;;19.53;43.18
20987;BME280;10652;50.306;8.570;2023-06-26T19:34:27;98184.94;;;19.41;43.15
20987;BME280;10652;50.306;8.570;2023-06-26T19:38:29;98187.38;;;19.33;43.58
20987;BME280;10652;50.306;8.570;2023-06-26T19:42:31;98195.00;;;19.26;43.81
20987;BME280;10652;50.306;8.570;2023-06-26T19:46:34;98207.97;;;19.19;43.55
20987;BME280;10652;50.306;8.570;2023-06-26T19:50:36;98202.16;;;19.14;44.08
20987;BME280;10652;50.306;8.570;2023-06-26T19:54:38;98211.84;;;19.15;44.02
20987;BME280;10652;50.306;8.570;2023-06-26T19:58:40;98214.97;;;19.09;44.16
20987;BME280;10652;50.306;8.570;2023-06-26T20:02:42;98206.00;;;18.99;44.44
20987;BME280;10652;50.306;8.570;2023-06-26T20:06:45;98213.50;;;18.94;44.67
20987;BME280;10652;50.306;8.570;2023-06-26T20:10:49;98221.97;;;18.88;44.74
20987;BME280;10652;50.306;8.570;2023-06-26T20:14:51;98228.72;;;18.81;44.79
20987;BME280;10652;50.306;8.570;2023-06-26T20:18:53;98230.44;;;18.71;45.37
20987;BME280;10652;50.306;8.570;2023-06-26T20:22:55;98234.75;;;18.61;45.28
20987;BME280;10652;50.306;8.570;2023-06-26T20:27:00;98239.84;;;18.53;45.25
20987;BME280;10652;50.306;8.570;2023-06-26T20:31:03;98232.66;;;18.42;45.60
20987;BME280;10652;50.306;8.570;2023-06-26T20:35:05;98239.41;;;18.35;46.40
20987;BME280;10652;50.306;8.570;2023-06-26T20:39:07;98238.38;;;18.25;46.21
20987;BME280;10652;50.306;8.570;2023-06-26T20:43:10;98238.03;;;18.29;46.47
20987;BME280;10652;50.306;8.570;2023-06-26T20:47:12;98238.22;;;18.26;46.23
20987;BME280;10652;50.306;8.570;2023-06-26T20:51:17;98236.25;;;18.17;46.03
20987;BME280;10652;50.306;8.570;2023-06-26T20:55:20;98243.25;;;18.07;46.43
20987;BME280;10652;50.306;8.570;2023-06-26T20:59:22;98254.69;;;17.96;46.64
20987;BME280;10652;50.306;8.570;2023-06-26T21:03:24;98255.25;;;17.89;46.46
20987;BME280;10652;50.306;8.570;2023-06-26T21:07:27;98257.59;;;17.81;47.35
20987;BME280;10652;50.306;8.570;2023-06-26T21:11:31;98260.47;;;17.78;47.44
20987;BME280;10652;50.306;8.570;2023-06-26T21:15:33;98261.66;;;17.74;47.47
20987;BME280;10652;50.306;8.570;2023-06-26T21:19:35;98268.88;;;17.72;47.54
20987;BME280;10652;50.306;8.570;2023-06-26T21:23:38;98268.50;;;17.65;47.93
20987;BME280;10652;50.306;8.570;2023-06-26T21:27:40;98277.66;;;17.61;47.99
20987;BME280;10652;50.306;8.570;2023-06-26T21:31:42;98281.50;;;17.57;48.31
20987;BME280;10652;50.306;8.570;2023-06-26T21:35:44;98280.03;;;17.53;48.62
20987;BME280;10652;50.306;8.570;2023-06-26T21:39:49;98295.53;;;17.46;48.37
20987;BME280;10652;50.306;8.570;2023-06-26T21:43:51;98300.38;;;17.40;48.70
20987;BME280;10652;50.306;8.570;2023-06-26T21:47:53;98300.84;;;17.34;48.80